createdAt,value
2023-03-05T00:00:48.211Z,4.50
2023-03-05T00:02:50.669Z,4.40
2023-03-05T00:04:53.188Z,4.40
2023-03-05T00:06:55.659Z,4.40
2023-03-05T00:08:58.714Z,4.40
2023-03-05T00:11:02.041Z,4.40
2023-03-05T00:13:04.561Z,4.40
2023-03-05T00:15:28.718Z,4.40
2023-03-05T00:17:34.424Z,4.40
2023-03-05T00:19:38.682Z,4.40
2023-03-05T00:21:42.018Z,4.30
2023-03-05T00:23:44.513Z,4.30
2023-03-05T00:25:47.638Z,4.40
2023-03-05T00:27:50.126Z,4.30
2023-03-05T00:29:52.747Z,4.40
2023-03-05T00:31:55.332Z,4.40
2023-03-05T00:33:59.490Z,4.40
2023-03-05T00:36:03.876Z,4.40
2023-03-05T00:38:06.445Z,4.40
2023-03-05T00:40:10.271Z,4.30
2023-03-05T00:42:12.848Z,4.30
2023-03-05T00:44:15.412Z,4.40
2023-03-05T00:46:18.095Z,4.40
2023-03-05T00:48:21.854Z,4.40
2023-03-05T00:50:24.587Z,4.30
2023-03-05T00:52:27.124Z,4.30
2023-03-05T00:54:29.649Z,4.30
2023-03-05T00:56:32.299Z,4.30
2023-03-05T00:58:34.945Z,4.30
2023-03-05T01:00:37.595Z,4.40
2023-03-05T01:02:40.618Z,4.30
2023-03-05T01:04:45.065Z,4.40
2023-03-05T01:06:47.574Z,4.40
2023-03-05T01:08:50.241Z,4.30
2023-03-05T01:10:53.266Z,4.30
2023-03-05T01:12:56.702Z,4.30
2023-03-05T01:14:59.183Z,4.30
2023-03-05T01:17:02.049Z,4.20
2023-03-05T01:19:04.530Z,4.30
2023-03-05T01:21:07.104Z,4.20
2023-03-05T01:23:09.826Z,4.30
2023-03-05T01:25:12.887Z,4.30
2023-03-05T01:27:15.377Z,4.30
2023-03-05T01:29:17.907Z,4.30
2023-03-05T01:31:20.540Z,4.30
2023-03-05T01:33:23.187Z,4.30
2023-03-05T01:35:26.533Z,4.20
2023-03-05T01:37:29.644Z,4.30
2023-03-05T01:39:32.265Z,4.30
2023-03-05T01:41:35.264Z,4.30
2023-03-05T01:43:37.885Z,4.30
2023-03-05T01:45:42.362Z,4.20
2023-03-05T01:47:45.107Z,4.20
2023-03-05T01:49:47.803Z,4.20
2023-03-05T01:51:54.446Z,4.20
2023-03-05T01:53:58.007Z,4.20
2023-03-05T01:56:01.061Z,4.20
2023-03-05T01:58:05.071Z,4.20
2023-03-05T02:00:10.917Z,4.20
2023-03-05T02:02:16.429Z,4.20
2023-03-05T02:04:19.477Z,4.10
2023-03-05T02:06:22.377Z,4.10
2023-03-05T02:08:25.079Z,4.10
2023-03-05T02:10:28.871Z,4.10
2023-03-05T02:12:31.600Z,4.10
2023-03-05T02:14:34.499Z,4.00
2023-03-05T02:16:38.071Z,4.00
2023-03-05T02:18:40.755Z,4.00
2023-03-05T02:20:44.876Z,4.00
2023-03-05T02:22:47.572Z,4.00
2023-03-05T02:24:50.619Z,4.00
2023-03-05T02:26:53.148Z,4.00
2023-03-05T02:28:58.300Z,4.00
2023-03-05T02:31:01.217Z,4.00
2023-03-05T02:33:04.056Z,4.00
2023-03-05T02:35:08.375Z,4.00
2023-03-05T02:37:11.090Z,4.00
2023-03-05T02:39:13.707Z,4.00
2023-03-05T02:41:16.340Z,4.00
2023-03-05T02:43:19.318Z,4.00
2023-03-05T02:45:21.936Z,4.00
2023-03-05T02:47:24.519Z,4.00
2023-03-05T02:49:27.269Z,3.90
2023-03-05T02:51:29.846Z,3.90
2023-03-05T02:53:32.579Z,3.90
2023-03-05T02:55:35.213Z,3.90
2023-03-05T02:57:37.844Z,3.90
2023-03-05T02:59:40.379Z,3.90
2023-03-05T03:01:43.120Z,3.90
2023-03-05T03:03:45.739Z,3.90
2023-03-05T03:05:48.260Z,3.90
2023-03-05T03:07:50.760Z,3.90
2023-03-05T03:09:53.339Z,3.80
2023-03-05T03:11:55.809Z,3.90
2023-03-05T03:13:59.218Z,3.90
2023-03-05T03:16:06.214Z,3.90
2023-03-05T03:18:08.807Z,3.90
2023-03-05T03:20:13.790Z,3.90
2023-03-05T03:22:16.275Z,3.90
2023-03-05T03:24:18.758Z,3.90
2023-03-05T03:26:21.375Z,3.90
2023-03-05T03:28:23.879Z,3.90
2023-03-05T03:30:26.352Z,3.90
2023-03-05T03:32:29.323Z,3.90
2023-03-05T03:34:31.948Z,3.90
2023-03-05T03:36:34.610Z,3.80
2023-03-05T03:38:37.267Z,3.80
2023-03-05T03:40:39.840Z,3.80
2023-03-05T03:42:42.382Z,3.90
2023-03-05T03:44:44.896Z,3.90
2023-03-05T03:46:48.232Z,3.80
2023-03-05T03:48:51.072Z,3.80
2023-03-05T03:50:53.613Z,3.80
2023-03-05T03:52:56.105Z,3.80
2023-03-05T03:55:10.931Z,3.80
2023-03-05T03:57:13.544Z,3.50
2023-03-05T03:59:16.238Z,3.80
2023-03-05T04:01:19.173Z,3.80
2023-03-05T04:03:21.660Z,3.80
2023-03-05T04:05:24.326Z,3.80
2023-03-05T04:07:26.833Z,3.80
2023-03-05T04:09:29.429Z,3.80
2023-03-05T04:11:31.945Z,3.80
2023-03-05T04:13:34.582Z,3.80
2023-03-05T04:15:37.134Z,3.80
2023-03-05T04:17:39.749Z,3.70
2023-03-05T04:19:54.436Z,3.70
2023-03-05T04:21:56.948Z,3.90
2023-03-05T04:23:59.452Z,3.80
2023-03-05T04:26:01.957Z,3.80
2023-03-05T04:28:04.702Z,3.80
2023-03-05T04:30:08.810Z,3.70
2023-03-05T04:32:11.301Z,3.70
2023-03-05T04:34:13.840Z,3.70
2023-03-05T04:36:16.463Z,3.70
2023-03-05T04:38:20.388Z,3.70
2023-03-05T04:40:22.982Z,3.70
2023-03-05T04:42:25.564Z,3.70
2023-03-05T04:44:28.092Z,3.70
2023-03-05T04:46:30.656Z,3.70
2023-03-05T04:48:33.155Z,3.70
2023-03-05T04:50:35.803Z,3.70
2023-03-05T04:52:39.889Z,3.70
2023-03-05T04:54:43.992Z,3.70
2023-03-05T04:56:46.593Z,3.70
2023-03-05T04:58:49.114Z,3.60
2023-03-05T05:00:51.696Z,3.60
2023-03-05T05:02:54.305Z,3.60
2023-03-05T05:04:56.859Z,3.60
2023-03-05T05:06:59.620Z,3.60
2023-03-05T05:09:02.145Z,3.60
2023-03-05T05:11:06.294Z,3.60
2023-03-05T05:13:08.844Z,3.60
2023-03-05T05:15:12.382Z,3.50
2023-03-05T05:17:14.946Z,3.60
2023-03-05T05:19:17.678Z,3.40
2023-03-05T05:21:20.189Z,3.40
2023-03-05T05:23:22.720Z,3.40
2023-03-05T05:25:25.384Z,3.40
2023-03-05T05:27:28.036Z,3.40
2023-03-05T05:29:30.597Z,3.30
2023-03-05T05:31:33.091Z,3.30
2023-03-05T05:33:35.624Z,3.30
2023-03-05T05:35:39.789Z,3.30
2023-03-05T05:37:42.554Z,3.20
2023-03-05T05:39:47.720Z,3.20
2023-03-05T05:41:50.984Z,3.20
2023-03-05T05:43:53.910Z,3.10
2023-03-05T05:45:59.333Z,3.00
2023-03-05T05:48:01.935Z,3.00
2023-03-05T05:50:05.045Z,3.00
2023-03-05T05:52:07.640Z,3.00
2023-03-05T05:54:11.780Z,3.10
2023-03-05T05:56:16.110Z,3.10
2023-03-05T05:58:18.661Z,3.10
2023-03-05T06:00:21.951Z,3.10
2023-03-05T06:02:24.440Z,3.20
2023-03-05T06:04:27.082Z,3.10
2023-03-05T06:06:29.711Z,3.10
2023-03-05T06:08:32.346Z,3.10
2023-03-05T06:10:34.914Z,3.10
2023-03-05T06:12:37.559Z,3.20
2023-03-05T06:14:40.090Z,3.20
2023-03-05T06:16:42.778Z,3.20
2023-03-05T06:18:45.282Z,3.20
2023-03-05T06:20:49.675Z,3.20
2023-03-05T06:22:52.236Z,3.20
2023-03-05T06:24:54.776Z,3.20
2023-03-05T06:26:57.342Z,3.20
2023-03-05T06:28:59.853Z,3.10
2023-03-05T06:31:03.012Z,3.20
2023-03-05T06:33:06.427Z,3.20
2023-03-05T06:35:09.553Z,3.20
2023-03-05T06:37:12.058Z,3.20
2023-03-05T06:39:14.701Z,3.20
2023-03-05T06:41:18.546Z,3.20
2023-03-05T06:43:21.189Z,3.30
2023-03-05T06:45:23.986Z,3.30
2023-03-05T06:47:26.496Z,3.30
2023-03-05T06:49:29.065Z,3.30
2023-03-05T06:51:32.552Z,3.30
2023-03-05T06:53:35.079Z,3.30
2023-03-05T06:55:39.460Z,3.30
2023-03-05T06:57:41.993Z,3.40
2023-03-05T06:59:44.647Z,3.30
2023-03-05T07:01:47.371Z,3.40
2023-03-05T07:03:50.827Z,3.50
2023-03-05T07:05:53.327Z,3.40
2023-03-05T07:07:55.855Z,3.50
2023-03-05T07:09:58.698Z,3.50
2023-03-05T07:12:01.414Z,3.50
2023-03-05T07:14:04.041Z,3.50
2023-03-05T07:16:07.799Z,3.60
2023-03-05T07:18:10.334Z,3.70
2023-03-05T07:20:13.339Z,3.60
2023-03-05T07:22:15.910Z,3.60
2023-03-05T07:24:18.408Z,3.60
2023-03-05T07:26:21.666Z,3.60
2023-03-05T07:28:24.161Z,3.60
2023-03-05T07:30:26.703Z,3.70
2023-03-05T07:32:29.271Z,3.70
2023-03-05T07:34:31.865Z,3.70
2023-03-05T07:36:34.399Z,3.70
2023-03-05T07:38:36.958Z,3.70
2023-03-05T07:40:39.455Z,3.70
2023-03-05T07:42:42.205Z,3.70
2023-03-05T07:44:46.885Z,3.70
2023-03-05T07:46:49.420Z,3.80
2023-03-05T07:48:52.017Z,3.70
2023-03-05T07:51:01.058Z,3.70
2023-03-05T07:53:03.727Z,3.80
2023-03-05T07:55:06.774Z,3.70
2023-03-05T07:57:11.920Z,3.80
2023-03-05T07:59:14.416Z,3.80
2023-03-05T08:01:17.166Z,3.80
2023-03-05T08:03:19.652Z,3.80
2023-03-05T08:05:22.188Z,3.80
2023-03-05T08:07:24.686Z,3.90
2023-03-05T08:09:28.453Z,3.90
2023-03-05T08:11:30.944Z,3.90
2023-03-05T08:13:33.464Z,3.90
2023-03-05T08:15:37.732Z,4.00
2023-03-05T08:17:40.256Z,4.00
2023-03-05T08:19:42.756Z,4.00
2023-03-05T08:21:45.962Z,4.00
2023-03-05T08:23:48.430Z,4.10
2023-03-05T08:25:50.929Z,4.00
2023-03-05T08:27:54.559Z,4.00
2023-03-05T08:29:57.095Z,4.10
2023-03-05T08:31:59.600Z,4.00
2023-03-05T08:34:02.474Z,4.10
2023-03-05T08:36:05.806Z,4.00
2023-03-05T08:38:08.283Z,4.10
2023-03-05T08:40:13.157Z,4.10
2023-03-05T08:42:15.676Z,4.10
2023-03-05T08:44:18.193Z,4.10
2023-03-05T08:46:20.738Z,4.20
2023-03-05T08:48:23.306Z,4.20
2023-03-05T08:50:25.843Z,4.20
2023-03-05T08:52:28.347Z,4.30
2023-03-05T08:54:30.855Z,4.30
2023-03-05T08:56:33.496Z,4.30
2023-03-05T08:58:36.314Z,4.40
2023-03-05T09:00:38.774Z,4.40
2023-03-05T09:02:41.346Z,4.50
2023-03-05T09:04:43.916Z,4.40
2023-03-05T09:06:46.411Z,4.40
2023-03-05T09:08:48.930Z,4.40
2023-03-05T09:10:51.549Z,4.50
2023-03-05T09:12:54.094Z,4.50
2023-03-05T09:14:56.872Z,4.50
2023-03-05T09:16:59.533Z,4.50
2023-03-05T09:19:02.244Z,4.60
2023-03-05T09:21:05.603Z,4.60
2023-03-05T09:23:08.201Z,4.60
2023-03-05T09:25:11.803Z,4.60
2023-03-05T09:27:14.343Z,4.50
2023-03-05T09:29:17.077Z,4.50
2023-03-05T09:31:19.583Z,4.40
2023-03-05T09:33:22.063Z,4.40
2023-03-05T09:35:24.609Z,4.50
2023-03-05T09:37:28.847Z,4.60
2023-03-05T09:39:31.375Z,4.70
2023-03-05T09:41:37.392Z,4.90
2023-03-05T09:43:43.449Z,4.90
2023-03-05T09:45:48.068Z,5.00
2023-03-05T09:47:53.930Z,5.00
2023-03-05T09:49:59.183Z,5.00
2023-03-05T09:52:04.411Z,4.90
2023-03-05T09:54:09.977Z,4.90
2023-03-05T09:56:13.926Z,4.80
2023-03-05T09:58:17.912Z,4.70
2023-03-05T10:00:23.937Z,4.80
2023-03-05T10:02:27.968Z,4.80
2023-03-05T10:04:33.838Z,4.70
2023-03-05T10:06:37.399Z,4.80
2023-03-05T10:08:46.228Z,5.00
2023-03-05T10:10:49.915Z,5.00
2023-03-05T10:12:54.060Z,5.00
2023-03-05T10:14:59.958Z,5.10
2023-03-05T10:17:27.844Z,5.10
2023-03-05T10:19:39.084Z,5.20
2023-03-05T10:21:44.082Z,5.30
2023-03-05T10:23:58.124Z,5.40
2023-03-05T10:26:05.756Z,5.50
2023-03-05T10:28:13.210Z,5.70
2023-03-05T10:30:34.674Z,5.70
2023-03-05T10:32:40.264Z,5.70
2023-03-05T10:34:51.186Z,5.80
2023-03-05T10:37:04.370Z,5.70
2023-03-05T10:39:26.173Z,5.80
2023-03-05T10:41:31.669Z,5.80
2023-03-05T10:43:36.341Z,5.80
2023-03-05T10:45:41.383Z,5.80
2023-03-05T10:47:46.813Z,5.80
2023-03-05T10:49:50.550Z,5.80
2023-03-05T10:51:54.985Z,5.80
2023-03-05T10:53:58.620Z,5.80
2023-03-05T10:56:04.746Z,5.70
2023-03-05T10:58:11.807Z,5.80
2023-03-05T11:00:19.581Z,5.70
2023-03-05T11:02:22.482Z,5.70
2023-03-05T11:04:28.869Z,5.70
2023-03-05T11:06:36.980Z,5.70
2023-03-05T11:08:40.023Z,5.80
2023-03-05T11:10:42.655Z,5.80
2023-03-05T11:12:45.477Z,5.80
2023-03-05T11:14:50.968Z,6.00
2023-03-05T11:16:53.724Z,6.00
2023-03-05T11:19:14.453Z,5.90
2023-03-05T11:21:23.191Z,5.90
2023-03-05T11:23:25.749Z,5.90
2023-03-05T11:25:28.327Z,6.00
2023-03-05T11:27:32.221Z,5.90
2023-03-05T11:29:34.989Z,6.00
2023-03-05T11:31:37.567Z,6.10
2023-03-05T11:33:40.170Z,6.10
2023-03-05T11:35:44.001Z,6.30
2023-03-05T11:37:48.461Z,6.40
2023-03-05T11:39:54.080Z,6.60
2023-03-05T11:41:58.848Z,6.70
2023-03-05T11:44:03.742Z,6.70
2023-03-05T11:46:06.410Z,6.40
2023-03-05T11:48:10.760Z,6.30
2023-03-05T11:50:15.459Z,6.20
2023-03-05T11:52:20.959Z,6.10
2023-03-05T11:54:25.463Z,6.10
2023-03-05T11:56:29.729Z,6.00
2023-03-05T11:58:34.092Z,6.10
2023-03-05T12:00:37.561Z,6.10
2023-03-05T12:02:40.272Z,6.10
2023-03-05T12:04:43.030Z,5.90
2023-03-05T12:06:47.537Z,5.90
2023-03-05T12:08:51.963Z,5.80
2023-03-05T12:10:54.877Z,5.80
2023-03-05T12:13:00.044Z,5.70
2023-03-05T12:15:05.359Z,5.80
2023-03-05T12:17:10.269Z,5.80
2023-03-05T12:19:18.552Z,5.80
2023-03-05T12:21:27.000Z,5.90
2023-03-05T12:23:29.639Z,5.90
2023-03-05T12:25:32.829Z,6.00
2023-03-05T12:27:36.372Z,6.10
2023-03-05T12:29:40.510Z,6.20
2023-03-05T12:31:45.317Z,6.30
2023-03-05T12:33:47.946Z,6.40
2023-03-05T12:35:50.469Z,6.60
2023-03-05T12:38:02.929Z,6.60
2023-03-05T12:40:12.440Z,6.60
2023-03-05T12:42:42.212Z,6.70
2023-03-05T12:44:44.820Z,6.60
2023-03-05T12:46:50.295Z,6.40
2023-03-05T12:48:53.127Z,6.30
2023-03-05T12:50:58.710Z,6.20
2023-03-05T12:53:03.691Z,6.10
2023-03-05T12:55:18.388Z,6.00
2023-03-05T12:57:22.662Z,5.90
2023-03-05T12:59:27.021Z,6.30
2023-03-05T13:01:35.487Z,6.10
2023-03-05T13:03:39.866Z,6.20
2023-03-05T13:05:48.127Z,6.40
2023-03-05T13:07:51.080Z,6.60
2023-03-05T13:09:55.034Z,6.50
2023-03-05T13:11:58.326Z,6.50
2023-03-05T13:14:02.137Z,6.50
2023-03-05T13:16:05.348Z,6.80
2023-03-05T13:18:14.416Z,6.90
2023-03-05T13:20:33.156Z,7.00
2023-03-05T13:22:35.693Z,7.00
2023-03-05T13:24:38.272Z,7.10
2023-03-05T13:26:41.119Z,7.20
2023-03-05T13:28:45.179Z,7.20
2023-03-05T13:30:51.636Z,7.00
2023-03-05T13:32:56.183Z,7.10
2023-03-05T13:34:59.988Z,7.10
2023-03-05T13:37:04.191Z,7.00
2023-03-05T13:39:07.087Z,7.00
2023-03-05T13:41:20.019Z,6.90
2023-03-05T13:43:22.610Z,6.90
2023-03-05T13:45:27.108Z,6.90
2023-03-05T13:47:31.557Z,6.90
2023-03-05T13:49:34.327Z,6.90
2023-03-05T13:51:44.388Z,6.90
2023-03-05T13:53:47.390Z,6.90
2023-03-05T13:55:51.246Z,6.80
2023-03-05T13:57:54.660Z,6.80
2023-03-05T13:59:57.199Z,6.80
2023-03-05T14:02:00.571Z,6.80
2023-03-05T14:04:05.790Z,6.80
2023-03-05T14:06:10.490Z,6.80
2023-03-05T14:08:17.982Z,6.70
2023-03-05T14:10:31.759Z,6.70
2023-03-05T14:12:35.467Z,6.80
2023-03-05T14:14:38.647Z,7.00
2023-03-05T14:16:41.197Z,7.00
2023-03-05T14:18:53.632Z,7.20
2023-03-05T14:21:03.168Z,7.40
2023-03-05T14:23:26.806Z,7.50
2023-03-05T14:25:32.542Z,7.60
2023-03-05T14:27:36.263Z,7.50
2023-03-05T14:29:42.993Z,7.40
2023-03-05T14:31:48.659Z,7.40
2023-03-05T14:33:52.554Z,7.50
2023-03-05T14:35:57.556Z,7.30
2023-03-05T14:38:01.218Z,7.30
2023-03-05T14:40:06.267Z,7.10
2023-03-05T14:42:29.118Z,7.00
2023-03-05T14:44:33.026Z,6.90
2023-03-05T14:46:36.097Z,7.00
2023-03-05T14:48:39.663Z,7.20
2023-03-05T14:50:45.557Z,7.30
2023-03-05T14:52:49.830Z,7.30
2023-03-05T14:54:52.913Z,7.40
2023-03-05T14:56:55.422Z,7.40
2023-03-05T14:58:58.057Z,7.40
2023-03-05T15:01:00.632Z,7.30
2023-03-05T15:03:03.592Z,7.40
2023-03-05T15:07:13.282Z,7.20
2023-03-05T15:09:17.340Z,7.20
2023-03-05T15:11:21.822Z,7.20
2023-03-05T15:13:24.484Z,7.10
2023-03-05T15:15:27.136Z,7.10
2023-03-05T15:17:32.457Z,7.00
2023-03-05T15:19:35.039Z,6.30
2023-03-05T15:21:37.566Z,7.00
2023-03-05T15:23:40.047Z,6.90
2023-03-05T15:25:42.705Z,6.90
2023-03-05T15:27:45.449Z,6.90
2023-03-05T15:29:47.990Z,6.90
2023-03-05T15:31:53.285Z,6.80
2023-03-05T15:33:56.620Z,5.90
2023-03-05T15:36:01.456Z,6.70
2023-03-05T15:38:05.343Z,6.70
2023-03-05T15:40:10.256Z,6.60
2023-03-05T15:42:14.313Z,6.60
2023-03-05T15:44:19.163Z,6.60
2023-03-05T15:46:22.784Z,6.60
2023-03-05T15:48:25.686Z,6.50
2023-03-05T15:50:29.631Z,6.50
2023-03-05T15:52:33.353Z,6.50
2023-03-05T15:54:36.811Z,6.50
2023-03-05T15:56:41.294Z,6.50
2023-03-05T15:58:46.043Z,6.50
2023-03-05T16:00:49.817Z,6.40
2023-03-05T16:02:52.816Z,6.40
2023-03-05T16:04:56.068Z,6.40
2023-03-05T16:06:59.762Z,6.40
2023-03-05T16:09:03.917Z,6.30
2023-03-05T16:11:06.883Z,6.30
2023-03-05T16:13:11.939Z,6.40
2023-03-05T16:15:16.908Z,6.40
2023-03-05T16:17:20.802Z,6.40
2023-03-05T16:19:24.262Z,6.40
2023-03-05T16:21:27.484Z,6.30
2023-03-05T16:23:31.475Z,6.30
2023-03-05T16:25:35.172Z,6.30
2023-03-05T16:27:38.618Z,6.20
2023-03-05T16:29:41.580Z,6.20
2023-03-05T16:31:44.974Z,6.20
2023-03-05T16:33:48.235Z,6.20
2023-03-05T16:35:52.603Z,6.10
2023-03-05T16:37:55.172Z,6.10
2023-03-05T16:39:59.308Z,6.10
2023-03-05T16:42:04.334Z,6.10
2023-03-05T16:44:08.278Z,6.00
2023-03-05T16:46:13.830Z,6.00
2023-03-05T16:48:17.892Z,6.10
2023-03-05T16:50:22.184Z,6.00
2023-03-05T16:52:25.623Z,6.00
2023-03-05T16:54:29.166Z,6.00
2023-03-05T16:56:33.444Z,6.00
2023-03-05T16:58:38.087Z,6.00
2023-03-05T17:00:41.389Z,6.00
2023-03-05T17:02:46.830Z,5.90
2023-03-05T17:04:50.969Z,5.90
2023-03-05T17:06:55.188Z,5.90
2023-03-05T17:08:58.626Z,5.80
2023-03-05T17:11:02.030Z,5.80
2023-03-05T17:13:05.383Z,5.80
2023-03-05T17:15:10.324Z,5.90
2023-03-05T17:17:13.610Z,5.80
2023-03-05T17:19:17.622Z,5.80
2023-03-05T17:21:20.736Z,5.80
2023-03-05T17:23:24.326Z,5.80
2023-03-05T17:25:27.782Z,5.80
2023-03-05T17:27:30.950Z,5.80
2023-03-05T17:29:35.838Z,5.90
2023-03-05T17:31:40.264Z,5.80
2023-03-05T17:33:44.958Z,5.70
2023-03-05T17:35:49.946Z,5.70
2023-03-05T17:37:54.975Z,5.70
2023-03-05T17:39:58.440Z,5.60
2023-03-05T17:42:01.480Z,5.70
2023-03-05T17:44:05.164Z,5.60
2023-03-05T17:46:08.675Z,5.60
2023-03-05T17:48:12.586Z,5.50
2023-03-05T17:50:15.942Z,5.50
2023-03-05T17:52:20.850Z,5.50
2023-03-05T17:54:24.070Z,5.50
2023-03-05T17:56:27.617Z,5.40
2023-03-05T17:58:30.890Z,5.50
2023-03-05T18:00:35.431Z,5.40
2023-03-05T18:02:39.584Z,5.40
2023-03-05T18:04:44.101Z,5.30
2023-03-05T18:06:48.926Z,5.30
2023-03-05T18:08:52.612Z,5.30
2023-03-05T18:10:57.536Z,5.20
2023-03-05T18:13:00.817Z,5.30
2023-03-05T18:15:03.914Z,5.40
2023-03-05T18:17:07.425Z,5.30
2023-03-05T18:19:10.730Z,5.30
2023-03-05T18:21:15.801Z,5.30
2023-03-05T18:23:18.647Z,5.30
2023-03-05T18:25:24.156Z,5.20
2023-03-05T18:27:27.635Z,5.20
2023-03-05T18:29:30.699Z,5.20
2023-03-05T18:31:33.816Z,5.20
2023-03-05T18:33:38.544Z,5.20
2023-03-05T18:35:41.918Z,5.20
2023-03-05T18:37:44.597Z,5.10
2023-03-05T18:39:47.138Z,5.40
2023-03-05T18:41:49.621Z,5.10
2023-03-05T18:43:53.997Z,5.10
2023-03-05T18:45:56.941Z,5.00
2023-03-05T18:47:59.594Z,5.00
2023-03-05T18:50:02.093Z,5.00
2023-03-05T18:52:04.994Z,5.00
2023-03-05T18:54:07.506Z,4.90
2023-03-05T18:56:10.357Z,4.90
2023-03-05T18:58:13.689Z,4.90
2023-03-05T19:00:17.159Z,4.90
2023-03-05T19:02:19.914Z,4.90
2023-03-05T19:04:22.602Z,4.90
2023-03-05T19:06:25.194Z,4.90
2023-03-05T19:08:27.818Z,4.90
2023-03-05T19:10:31.280Z,4.80
2023-03-05T19:12:36.429Z,4.80
2023-03-05T19:14:40.237Z,4.80
2023-03-05T19:16:43.802Z,4.80
2023-03-05T19:19:15.884Z,4.80
2023-03-05T19:21:18.418Z,4.70
2023-03-05T19:23:20.932Z,4.70
2023-03-05T19:25:23.428Z,4.70
2023-03-05T19:27:25.988Z,4.70
2023-03-05T19:29:31.936Z,4.70
2023-03-05T19:31:34.766Z,4.70
2023-03-05T19:33:37.290Z,4.70
2023-03-05T19:35:41.376Z,4.70
2023-03-05T19:37:45.412Z,4.70
2023-03-05T19:39:48.192Z,4.70
2023-03-05T19:41:51.125Z,4.70
2023-03-05T19:43:54.506Z,4.70
2023-03-05T19:46:01.513Z,4.70
2023-03-05T19:48:04.416Z,4.70
2023-03-05T19:50:07.899Z,4.60
2023-03-05T19:52:11.046Z,4.60
2023-03-05T19:54:14.222Z,4.60
2023-03-05T19:56:17.648Z,4.70
2023-03-05T19:58:20.159Z,4.70
2023-03-05T20:00:25.689Z,4.60
2023-03-05T20:02:29.105Z,4.60
2023-03-05T20:04:31.607Z,4.60
2023-03-05T20:06:34.220Z,4.60
2023-03-05T20:08:36.724Z,4.60
2023-03-05T20:10:39.314Z,4.60
2023-03-05T20:12:43.493Z,4.60
2023-03-05T20:14:46.028Z,4.60
2023-03-05T20:16:48.568Z,4.60
2023-03-05T20:18:52.280Z,4.60
2023-03-05T20:20:56.867Z,4.60
2023-03-05T20:22:59.377Z,4.60
2023-03-05T20:25:01.943Z,4.60
2023-03-05T20:27:04.675Z,4.60
2023-03-05T20:29:07.584Z,4.60
2023-03-05T20:31:10.253Z,4.50
2023-03-05T20:33:12.745Z,4.50
2023-03-05T20:35:16.399Z,4.50
2023-03-05T20:37:49.311Z,4.50
2023-03-05T20:39:53.774Z,4.50
2023-03-05T20:41:56.356Z,4.50
2023-03-05T20:43:58.849Z,4.30
2023-03-05T20:46:01.359Z,4.30
2023-03-05T20:48:04.224Z,4.30
2023-03-05T20:50:09.163Z,4.20
2023-03-05T20:52:11.810Z,4.20
2023-03-05T20:54:14.325Z,4.20
2023-03-05T20:56:17.016Z,4.20
2023-03-05T20:58:19.557Z,4.20
2023-03-05T21:00:22.281Z,4.10
2023-03-05T21:02:24.865Z,4.20
2023-03-05T21:04:27.473Z,4.00
2023-03-05T21:06:30.950Z,4.10
2023-03-05T21:08:33.617Z,4.10
2023-03-05T21:10:37.502Z,4.00
2023-03-05T21:12:40.096Z,4.10
2023-03-05T21:14:42.650Z,4.10
2023-03-05T21:16:45.205Z,4.10
2023-03-05T21:18:47.897Z,4.30
2023-03-05T21:20:50.470Z,4.10
2023-03-05T21:22:52.992Z,4.00
2023-03-05T21:25:18.185Z,4.00
2023-03-05T21:27:21.008Z,4.00
2023-03-05T21:29:23.558Z,4.00
2023-03-05T21:31:26.201Z,4.00
2023-03-05T21:33:30.323Z,4.10
2023-03-05T21:35:33.113Z,4.00
2023-03-05T21:37:37.438Z,3.90
2023-03-05T21:39:39.950Z,4.00
2023-03-05T21:41:45.725Z,3.90
2023-03-05T21:43:48.279Z,3.90
2023-03-05T21:45:53.028Z,4.20
2023-03-05T21:47:55.902Z,4.00
2023-03-05T21:49:58.594Z,3.90
2023-03-05T21:52:08.898Z,3.80
2023-03-05T21:54:11.473Z,3.80
2023-03-05T21:56:32.130Z,3.80
2023-03-05T21:58:34.833Z,3.80
2023-03-05T22:00:37.402Z,3.80
2023-03-05T22:02:39.991Z,3.80
2023-03-05T22:04:42.598Z,3.80
2023-03-05T22:06:45.184Z,3.70
2023-03-05T22:08:47.981Z,3.70
2023-03-05T22:10:50.926Z,3.70
2023-03-05T22:13:06.850Z,3.70
2023-03-05T22:15:10.373Z,3.80
2023-03-05T22:17:12.989Z,3.70
2023-03-05T22:19:15.571Z,3.70
2023-03-05T22:21:19.008Z,3.70
2023-03-05T22:23:22.646Z,3.70
2023-03-05T22:25:25.141Z,3.60
2023-03-05T22:27:27.649Z,3.70
2023-03-05T22:29:30.330Z,3.70
2023-03-05T22:31:32.828Z,3.70
2023-03-05T22:33:35.360Z,3.70
2023-03-05T22:35:39.241Z,3.70
2023-03-05T22:37:41.945Z,3.70
2023-03-05T22:39:44.460Z,3.70
2023-03-05T22:41:47.563Z,3.70
2023-03-05T22:43:50.826Z,3.80
2023-03-05T22:45:53.525Z,3.80
2023-03-05T22:47:56.209Z,3.70
2023-03-05T22:49:58.849Z,3.80
2023-03-05T22:52:01.369Z,3.70
2023-03-05T22:54:04.048Z,3.80
2023-03-05T22:56:07.811Z,3.80
2023-03-05T22:58:10.400Z,3.80
2023-03-05T23:00:15.351Z,3.70
2023-03-05T23:02:17.974Z,3.80
2023-03-05T23:04:44.728Z,3.80
2023-03-05T23:06:47.939Z,3.80
2023-03-05T23:08:50.470Z,3.80
2023-03-05T23:10:52.994Z,3.80
2023-03-05T23:12:56.467Z,3.80
2023-03-05T23:15:00.221Z,3.80
2023-03-05T23:17:03.316Z,3.80
2023-03-05T23:19:06.552Z,3.70
2023-03-05T23:21:09.172Z,3.80
2023-03-05T23:23:12.090Z,3.80
2023-03-05T23:25:15.323Z,3.80
2023-03-05T23:27:18.526Z,3.80
2023-03-05T23:29:26.946Z,3.80
2023-03-05T23:31:31.423Z,3.80
2023-03-05T23:33:33.926Z,3.80
2023-03-05T23:35:37.490Z,3.70
2023-03-05T23:37:40.662Z,3.80
2023-03-05T23:39:43.389Z,3.80
2023-03-05T23:41:45.903Z,3.70
2023-03-05T23:43:48.534Z,3.80
2023-03-05T23:45:54.224Z,3.70
2023-03-05T23:47:57.177Z,3.70
2023-03-05T23:49:59.652Z,3.70
2023-03-05T23:52:02.200Z,3.70
2023-03-05T23:54:05.167Z,3.80
2023-03-05T23:56:11.477Z,3.70
2023-03-05T23:58:14.358Z,3.70
